Terminal Aerodrome Forecast
Issued by NWS Topeka, KS

Home | Current Version | Previous Version | Text Only | Print | Product List | Glossary On
Versions: 1 2 3 4 5 6 7 8 9 10 11 12 13 14
000
FTUS43 KTOP 232000 AAA
TAFTOP
TAF AMD
KTOP 232051Z 2321/2418 15014KT P6SM VCTS SCT050CB BKN120
     FM240000 16008KT P6SM VCSH BKN080
     FM241500 17014G21KT P6SM SCT040 BKN100=

USA.gov is the U.S. government's official web portal to all federal, state and local government web resources and services.